Time;durP1;ratioP1;P1;durP2;ratioP2;P2;SDS_P1;SDS_P2;PMS_P1;PMS_P2;Temp;Humidity;BMP_temperature;BMP_pressure;BME280_temperature;BME280_humidity;BME280_pressure;Samples;Min_cycle;Max_cycle;Signal;HPM_P1;HPM_P2
2023/01/19 00:13:13;;;;;;;55.40;27.20;;;;;;;3.82;100.00;98960.29;682887;1260;139552;-76
2023/01/19 00:28:17;;;;;;;56.30;27.60;;;;;;;3.81;100.00;98985.08;682787;1259;139599;-76
2023/01/19 00:43:21;;;;;;;68.00;33.90;;;;;;;3.89;100.00;99007.95;682966;1260;140203;-76
2023/01/19 00:58:24;;;;;;;58.90;27.30;;;;;;;3.91;100.00;99036.71;682470;1262;140387;-76
2023/01/19 01:13:29;;;;;;;61.20;28.40;;;;;;;3.92;100.00;99058.61;682986;1263;140624;-76
2023/01/19 01:28:39;;;;;;;81.00;34.60;;;;;;;4.02;100.00;99082.36;682558;1260;140756;-76
2023/01/19 01:43:57;;;;;;;60.30;29.70;;;;;;;4.07;100.00;99094.27;682668;1262;138924;-77
2023/01/19 01:59:05;;;;;;;47.30;22.90;;;;;;;4.11;100.00;99120.61;682669;1262;139002;-77
2023/01/19 02:14:09;;;;;;;55.10;24.30;;;;;;;4.10;100.00;99127.23;682881;1262;138646;-76
2023/01/19 02:29:16;;;;;;;85.90;32.10;;;;;;;4.14;100.00;99145.95;682576;1262;139677;-76
2023/01/19 02:44:22;;;;;;;55.00;24.40;;;;;;;4.10;100.00;99147.67;683296;1260;140917;-78
2023/01/19 02:59:50;;;;;;;62.80;31.30;;;;;;;4.19;100.00;99152.46;683291;1261;139409;-78
2023/01/19 03:15:01;;;;;;;74.10;31.20;;;;;;;4.26;100.00;99147.96;683309;1262;138737;-78
2023/01/19 03:30:11;;;;;;;60.40;28.30;;;;;;;4.16;100.00;99141.42;683103;1260;138691;-79
2023/01/19 03:45:17;;;;;;;61.70;26.90;;;;;;;4.13;100.00;99125.09;683057;1263;139674;-77
2023/01/19 04:00:21;;;;;;;59.10;27.00;;;;;;;4.16;100.00;99113.59;682978;1262;139823;-76
2023/01/19 04:15:25;;;;;;;78.00;34.50;;;;;;;4.12;100.00;99120.30;683346;1260;138948;-77
2023/01/19 04:30:28;;;;;;;105.00;39.00;;;;;;;4.02;100.00;99132.92;682836;1263;140183;-78
2023/01/19 04:45:32;;;;;;;307.40;104.50;;;;;;;3.83;99.92;99144.25;683327;1257;140462;-78
2023/01/19 05:00:37;;;;;;;90.60;34.40;;;;;;;3.53;99.90;99162.41;682981;1263;139138;-77
2023/01/19 05:15:40;;;;;;;49.30;25.10;;;;;;;3.28;99.52;99176.45;683434;1261;138706;-77
2023/01/19 05:30:44;;;;;;;294.50;79.20;;;;;;;3.01;99.35;99195.69;682968;1263;139420;-77
2023/01/19 05:45:47;;;;;;;1546.00;696.30;;;;;;;3.01;99.50;99212.30;683190;1261;138694;-76
2023/01/19 06:00:50;;;;;;;169.10;91.50;;;;;;;3.02;99.26;99243.80;682801;1263;139452;-76
2023/01/19 06:15:57;;;;;;;99.00;37.60;;;;;;;2.99;98.83;99282.17;683063;1258;138701;-77
2023/01/19 06:31:01;;;;;;;281.50;101.70;;;;;;;2.95;98.83;99305.30;683305;1260;138617;-77
2023/01/19 06:46:04;;;;;;;66.90;30.30;;;;;;;2.92;98.80;99321.27;683201;1260;140279;-77
2023/01/19 07:01:08;;;;;;;72.60;30.40;;;;;;;3.08;99.28;99342.03;683427;1257;139127;-77
2023/01/19 07:16:12;;;;;;;76.30;32.80;;;;;;;3.28;99.92;99371.91;683098;1260;138620;-76
2023/01/19 07:31:16;;;;;;;104.30;44.00;;;;;;;3.52;99.95;99389.66;683018;1261;139759;-75
2023/01/19 07:46:20;;;;;;;135.20;59.30;;;;;;;3.76;100.00;99386.76;682849;1264;139014;-76
2023/01/19 08:01:23;;;;;;;252.40;100.50;;;;;;;3.85;100.00;99393.66;683180;1257;138859;-75
2023/01/19 08:16:27;;;;;;;123.50;48.10;;;;;;;3.99;99.98;99401.63;683204;1263;139400;-78
2023/01/19 08:31:30;;;;;;;120.10;48.50;;;;;;;3.94;99.99;99406.88;683599;1260;138788;-77
2023/01/19 08:46:34;;;;;;;110.00;45.00;;;;;;;4.14;100.00;99436.50;683023;1273;138889;-77
2023/01/19 09:01:37;;;;;;;86.50;38.90;;;;;;;4.38;99.92;99448.06;683356;1256;139412;-78
2023/01/19 09:16:41;;;;;;;90.10;38.00;;;;;;;4.61;99.41;99446.86;682756;1260;139018;-78
2023/01/19 09:31:44;;;;;;;119.10;52.30;;;;;;;4.78;99.12;99451.81;682961;1257;141332;-77
2023/01/19 09:46:47;;;;;;;98.00;44.40;;;;;;;4.86;99.35;99456.23;682973;1257;138729;-78
2023/01/19 10:02:22;;;;;;;174.70;74.80;;;;;;;4.96;98.97;99450.94;683130;1257;138670;-77
2023/01/19 10:17:45;;;;;;;282.10;99.80;;;;;;;5.05;97.76;99446.27;683305;1260;139215;-78
2023/01/19 10:33:00;;;;;;;478.30;188.30;;;;;;;5.11;98.28;99456.47;682847;1258;139058;-77
2023/01/19 10:48:41;;;;;;;236.70;92.60;;;;;;;5.19;98.15;99458.30;682691;1262;139602;-78
2023/01/19 11:03:45;;;;;;;202.20;83.20;;;;;;;5.24;98.02;99447.40;683333;1257;139611;-78
2023/01/19 11:18:52;;;;;;;500.20;209.00;;;;;;;5.33;97.83;99435.02;683041;1259;138848;-77
2023/01/19 11:34:01;;;;;;;871.30;323.00;;;;;;;5.23;97.02;99443.59;682770;1257;139797;-78
2023/01/19 11:49:12;;;;;;;361.60;110.70;;;;;;;5.01;98.24;99435.48;683063;1256;139309;-79
2023/01/19 12:04:23;;;;;;;400.60;111.40;;;;;;;4.92;97.76;99436.34;683002;1257;140391;-77
2023/01/19 12:19:43;;;;;;;353.10;106.80;;;;;;;5.20;98.04;99428.11;682769;1261;139700;-77
2023/01/19 12:34:50;;;;;;;253.50;92.00;;;;;;;5.40;97.62;99428.90;682689;1257;139705;-78
2023/01/19 12:50:05;;;;;;;345.00;154.70;;;;;;;5.44;95.73;99431.77;682899;1259;138761;-78
2023/01/19 13:05:10;;;;;;;365.30;129.00;;;;;;;5.07;97.20;99424.80;683006;1257;139727;-78
2023/01/19 13:20:23;;;;;;;170.20;63.80;;;;;;;4.97;98.65;99424.16;682786;1259;139174;-78
2023/01/19 13:35:27;;;;;;;295.90;114.20;;;;;;;4.96;98.73;99424.05;682865;1260;140533;-79
2023/01/19 13:50:34;;;;;;;337.50;109.70;;;;;;;4.87;98.04;99424.92;682647;1260;139081;-78
2023/01/19 14:05:42;;;;;;;155.90;58.40;;;;;;;4.98;99.36;99431.74;682441;1263;138870;-78
2023/01/19 14:21:12;;;;;;;220.70;84.60;;;;;;;4.92;98.78;99444.53;682854;1259;138915;-78
2023/01/19 14:36:22;;;;;;;169.20;62.10;;;;;;;4.80;98.91;99454.73;683089;1263;138923;-79
2023/01/19 14:51:26;;;;;;;235.90;85.70;;;;;;;4.81;99.43;99465.23;682918;1262;139540;-78
2023/01/19 15:06:40;;;;;;;174.30;64.90;;;;;;;4.76;98.93;99481.94;682996;1263;139427;-78
2023/01/19 15:21:45;;;;;;;195.10;73.50;;;;;;;4.72;99.39;99480.99;682723;1262;139023;-78
2023/01/19 15:36:48;;;;;;;246.60;87.10;;;;;;;4.70;99.97;99483.72;682971;1261;138823;-78
2023/01/19 15:51:52;;;;;;;237.20;82.00;;;;;;;4.70;99.69;99495.67;682856;1261;138907;-78
2023/01/19 16:06:56;;;;;;;414.20;133.70;;;;;;;4.32;100.00;99504.96;683141;1262;139522;-78
2023/01/19 16:21:59;;;;;;;291.40;106.00;;;;;;;4.21;100.00;99515.98;682875;1262;139072;-78
2023/01/19 16:37:02;;;;;;;134.30;55.20;;;;;;;4.11;100.00;99522.90;682692;1262;141809;-78
2023/01/19 16:52:06;;;;;;;157.00;55.90;;;;;;;4.09;100.00;99531.06;682731;1262;138852;-78
2023/01/19 17:07:09;;;;;;;209.40;73.80;;;;;;;4.07;100.00;99538.59;682534;1262;139517;-78
2023/01/19 17:22:13;;;;;;;201.30;80.50;;;;;;;4.06;100.00;99538.13;683089;1262;140261;-78
2023/01/19 17:37:17;;;;;;;305.00;117.40;;;;;;;4.15;100.00;99538.27;683551;1257;138745;-78
2023/01/19 17:52:20;;;;;;;255.50;79.50;;;;;;;4.16;100.00;99542.64;682914;1261;139293;-77
2023/01/19 18:07:23;;;;;;;464.50;129.10;;;;;;;4.23;100.00;99542.52;683412;1262;139308;-79
2023/01/19 18:22:27;;;;;;;113.00;37.30;;;;;;;4.16;100.00;99534.87;683202;1259;139414;-76
2023/01/19 18:37:30;;;;;;;192.00;56.00;;;;;;;4.17;100.00;99539.98;683040;1259;140043;-78
2023/01/19 18:52:33;;;;;;;117.40;40.50;;;;;;;4.15;100.00;99544.98;683080;1262;139079;-76
2023/01/19 19:07:38;;;;;;;82.40;26.60;;;;;;;4.28;100.00;99547.96;683036;1260;138925;-78
2023/01/19 19:22:41;;;;;;;140.30;41.10;;;;;;;4.23;100.00;99544.90;683039;1257;138858;-77
2023/01/19 19:37:45;;;;;;;197.90;59.00;;;;;;;4.24;100.00;99555.55;682510;1263;139009;-78
2023/01/19 19:52:48;;;;;;;111.30;40.40;;;;;;;4.29;100.00;99555.73;682538;1274;139068;-78
2023/01/19 20:07:52;;;;;;;92.10;32.80;;;;;;;4.21;100.00;99557.39;682562;1262;139954;-78
2023/01/19 20:22:58;;;;;;;96.00;37.70;;;;;;;4.23;100.00;99560.70;682719;1263;138969;-78
2023/01/19 20:38:01;;;;;;;88.80;33.90;;;;;;;4.23;100.00;99565.71;682512;1263;138786;-79
2023/01/19 20:53:08;;;;;;;109.90;35.80;;;;;;;4.16;100.00;99572.94;682612;1262;139006;-78
2023/01/19 21:08:20;;;;;;;98.00;34.90;;;;;;;4.02;100.00;99585.39;682588;1263;139013;-77
2023/01/19 21:23:25;;;;;;;124.30;38.80;;;;;;;4.05;100.00;99593.30;682351;1262;149836;-77
2023/01/19 21:38:29;;;;;;;179.60;63.10;;;;;;;4.05;100.00;99605.56;682848;1260;138967;-77
2023/01/19 21:53:32;;;;;;;139.40;43.90;;;;;;;4.12;100.00;99617.20;682527;1263;139364;-78
2023/01/19 22:08:40;;;;;;;122.50;38.10;;;;;;;4.12;100.00;99621.48;683046;1261;138712;-78
2023/01/19 22:23:48;;;;;;;115.10;41.80;;;;;;;4.16;100.00;99631.62;682712;1257;138884;-78
2023/01/19 22:39:06;;;;;;;100.30;36.50;;;;;;;4.20;100.00;99637.44;682699;1257;139570;-78
2023/01/19 22:54:10;;;;;;;109.80;37.90;;;;;;;4.21;100.00;99645.11;682695;1259;139811;-78
2023/01/19 23:09:13;;;;;;;130.10;43.40;;;;;;;4.24;100.00;99664.27;682920;1261;139765;-77
2023/01/19 23:24:16;;;;;;;151.10;44.70;;;;;;;4.26;100.00;99682.01;682642;1262;139746;-78
2023/01/19 23:39:21;;;;;;;154.50;53.90;;;;;;;4.14;100.00;99695.59;682693;1261;139036;-77
2023/01/19 23:54:24;;;;;;;130.10;40.50;;;;;;;3.98;100.00;99710.55;682763;1258;139767;-78
